Terminal Aerodrome Forecast
Issued by NWS Wilmington, OH

Current Version | Previous Version | Graphics & Text | Print | Product List | Glossary On
Versions: 1 2 3 4 5 6 7 8 9 10 11 12 13 14 15 16 17 18 19 20 21 22
754
FTUS41 KILN 261733
TAFILN
TAF
KILN 261733Z 2618/2718 26010KT P6SM FEW013 BKN050 OVC100
     FM262000 28012G18KT P6SM FEW100 SCT140
     FM270000 24005KT P6SM SKC
     FM271300 24014G24KT P6SM SKC=

USA.gov is the U.S. government's official web portal to all federal, state and local government web resources and services.